sensor_id;sensor_type;location;lat;lon;timestamp;P1;durP1;ratioP1;P2;durP2;ratioP2
67902;SDS011;54708;43.612;1.568;2023-12-29T00:01:16;22.67;;;17.05;;
67902;SDS011;54708;43.612;1.568;2023-12-29T00:03:42;26.55;;;16.95;;
67902;SDS011;54708;43.612;1.568;2023-12-29T00:06:08;27.52;;;15.35;;
67902;SDS011;54708;43.612;1.568;2023-12-29T00:08:34;27.55;;;17.17;;
67902;SDS011;54708;43.612;1.568;2023-12-29T00:10:59;25.48;;;15.50;;
67902;SDS011;54708;43.612;1.568;2023-12-29T00:13:24;23.27;;;16.48;;
67902;SDS011;54708;43.612;1.568;2023-12-29T00:15:53;23.95;;;16.90;;
67902;SDS011;54708;43.612;1.568;2023-12-29T00:18:19;23.42;;;15.60;;
67902;SDS011;54708;43.612;1.568;2023-12-29T00:20:45;26.75;;;17.25;;
67902;SDS011;54708;43.612;1.568;2023-12-29T00:23:10;27.92;;;16.60;;
67902;SDS011;54708;43.612;1.568;2023-12-29T00:25:36;23.00;;;15.90;;
67902;SDS011;54708;43.612;1.568;2023-12-29T00:28:02;24.38;;;15.57;;
67902;SDS011;54708;43.612;1.568;2023-12-29T00:30:28;30.10;;;16.55;;
67902;SDS011;54708;43.612;1.568;2023-12-29T00:32:54;24.63;;;15.30;;
67902;SDS011;54708;43.612;1.568;2023-12-29T00:35:20;25.48;;;16.17;;
67902;SDS011;54708;43.612;1.568;2023-12-29T00:37:45;26.83;;;16.48;;
67902;SDS011;54708;43.612;1.568;2023-12-29T00:40:11;24.88;;;16.67;;
67902;SDS011;54708;43.612;1.568;2023-12-29T00:42:36;27.15;;;16.17;;
67902;SDS011;54708;43.612;1.568;2023-12-29T00:45:02;21.58;;;15.52;;
67902;SDS011;54708;43.612;1.568;2023-12-29T00:47:28;30.88;;;16.88;;
67902;SDS011;54708;43.612;1.568;2023-12-29T00:49:53;22.52;;;16.70;;
67902;SDS011;54708;43.612;1.568;2023-12-29T00:52:18;20.67;;;15.70;;
67902;SDS011;54708;43.612;1.568;2023-12-29T00:54:44;18.35;;;15.02;;
67902;SDS011;54708;43.612;1.568;2023-12-29T00:57:09;24.50;;;16.10;;
67902;SDS011;54708;43.612;1.568;2023-12-29T00:59:36;21.38;;;14.82;;
67902;SDS011;54708;43.612;1.568;2023-12-29T01:02:02;25.45;;;14.98;;
67902;SDS011;54708;43.612;1.568;2023-12-29T01:04:28;26.05;;;15.55;;
67902;SDS011;54708;43.612;1.568;2023-12-29T01:06:53;23.30;;;15.43;;
67902;SDS011;54708;43.612;1.568;2023-12-29T01:09:19;29.02;;;16.45;;
67902;SDS011;54708;43.612;1.568;2023-12-29T01:11:44;28.70;;;16.20;;
67902;SDS011;54708;43.612;1.568;2023-12-29T01:14:09;20.17;;;14.70;;
67902;SDS011;54708;43.612;1.568;2023-12-29T01:16:35;28.17;;;16.80;;
67902;SDS011;54708;43.612;1.568;2023-12-29T01:19:00;19.35;;;14.73;;
67902;SDS011;54708;43.612;1.568;2023-12-29T01:21:26;21.02;;;15.75;;
67902;SDS011;54708;43.612;1.568;2023-12-29T01:23:51;22.88;;;14.85;;
67902;SDS011;54708;43.612;1.568;2023-12-29T01:26:16;29.30;;;17.02;;
67902;SDS011;54708;43.612;1.568;2023-12-29T01:28:42;23.77;;;17.33;;
67902;SDS011;54708;43.612;1.568;2023-12-29T01:31:07;27.80;;;19.00;;
67902;SDS011;54708;43.612;1.568;2023-12-29T01:33:34;30.17;;;17.42;;
67902;SDS011;54708;43.612;1.568;2023-12-29T01:35:59;29.17;;;18.13;;
67902;SDS011;54708;43.612;1.568;2023-12-29T01:38:25;24.52;;;17.70;;
67902;SDS011;54708;43.612;1.568;2023-12-29T01:40:50;29.80;;;19.35;;
67902;SDS011;54708;43.612;1.568;2023-12-29T01:43:17;26.17;;;18.35;;
67902;SDS011;54708;43.612;1.568;2023-12-29T01:45:42;25.95;;;17.33;;
67902;SDS011;54708;43.612;1.568;2023-12-29T01:48:08;25.63;;;17.42;;
67902;SDS011;54708;43.612;1.568;2023-12-29T01:50:34;22.65;;;16.23;;
67902;SDS011;54708;43.612;1.568;2023-12-29T01:53:00;25.35;;;17.70;;
67902;SDS011;54708;43.612;1.568;2023-12-29T01:55:26;24.00;;;16.67;;
67902;SDS011;54708;43.612;1.568;2023-12-29T01:57:52;25.25;;;16.27;;
67902;SDS011;54708;43.612;1.568;2023-12-29T02:00:18;26.20;;;17.58;;
67902;SDS011;54708;43.612;1.568;2023-12-29T02:02:44;24.42;;;16.92;;
67902;SDS011;54708;43.612;1.568;2023-12-29T02:05:13;27.08;;;17.40;;
67902;SDS011;54708;43.612;1.568;2023-12-29T02:07:40;23.92;;;17.25;;
67902;SDS011;54708;43.612;1.568;2023-12-29T02:10:06;28.38;;;17.20;;
67902;SDS011;54708;43.612;1.568;2023-12-29T02:12:32;22.83;;;16.48;;
67902;SDS011;54708;43.612;1.568;2023-12-29T02:14:59;27.25;;;17.23;;
67902;SDS011;54708;43.612;1.568;2023-12-29T02:17:29;29.95;;;18.25;;
67902;SDS011;54708;43.612;1.568;2023-12-29T02:19:56;25.27;;;17.00;;
67902;SDS011;54708;43.612;1.568;2023-12-29T02:22:22;23.83;;;17.50;;
67902;SDS011;54708;43.612;1.568;2023-12-29T02:24:51;25.08;;;17.27;;
67902;SDS011;54708;43.612;1.568;2023-12-29T02:32:44;23.25;;;16.52;;
67902;SDS011;54708;43.612;1.568;2023-12-29T02:35:12;23.90;;;17.17;;
67902;SDS011;54708;43.612;1.568;2023-12-29T02:37:39;28.35;;;18.25;;
67902;SDS011;54708;43.612;1.568;2023-12-29T02:40:06;28.40;;;17.98;;
67902;SDS011;54708;43.612;1.568;2023-12-29T02:42:33;25.80;;;17.92;;
67902;SDS011;54708;43.612;1.568;2023-12-29T02:44:58;23.30;;;16.92;;
67902;SDS011;54708;43.612;1.568;2023-12-29T02:47:23;31.17;;;19.83;;
67902;SDS011;54708;43.612;1.568;2023-12-29T02:49:49;25.35;;;17.15;;
67902;SDS011;54708;43.612;1.568;2023-12-29T02:52:15;32.05;;;19.25;;
67902;SDS011;54708;43.612;1.568;2023-12-29T02:54:40;29.27;;;18.52;;
67902;SDS011;54708;43.612;1.568;2023-12-29T02:57:06;24.20;;;17.33;;
67902;SDS011;54708;43.612;1.568;2023-12-29T02:59:31;30.58;;;18.08;;
67902;SDS011;54708;43.612;1.568;2023-12-29T03:01:56;27.55;;;18.67;;
67902;SDS011;54708;43.612;1.568;2023-12-29T03:04:22;30.27;;;19.15;;
67902;SDS011;54708;43.612;1.568;2023-12-29T03:06:47;24.58;;;17.95;;
67902;SDS011;54708;43.612;1.568;2023-12-29T03:09:13;35.17;;;21.00;;
67902;SDS011;54708;43.612;1.568;2023-12-29T03:11:38;29.10;;;20.08;;
67902;SDS011;54708;43.612;1.568;2023-12-29T03:14:03;26.60;;;18.17;;
67902;SDS011;54708;43.612;1.568;2023-12-29T03:16:29;31.42;;;19.98;;
67902;SDS011;54708;43.612;1.568;2023-12-29T03:18:54;35.35;;;21.35;;
67902;SDS011;54708;43.612;1.568;2023-12-29T03:21:19;28.17;;;18.75;;
67902;SDS011;54708;43.612;1.568;2023-12-29T03:23:45;30.73;;;19.65;;
67902;SDS011;54708;43.612;1.568;2023-12-29T03:26:11;32.13;;;18.92;;
67902;SDS011;54708;43.612;1.568;2023-12-29T03:28:36;28.98;;;19.90;;
67902;SDS011;54708;43.612;1.568;2023-12-29T03:31:02;35.03;;;20.33;;
67902;SDS011;54708;43.612;1.568;2023-12-29T03:33:27;28.63;;;19.20;;
67902;SDS011;54708;43.612;1.568;2023-12-29T03:35:52;28.90;;;20.13;;
67902;SDS011;54708;43.612;1.568;2023-12-29T03:38:18;28.65;;;18.00;;
67902;SDS011;54708;43.612;1.568;2023-12-29T03:40:43;35.95;;;21.00;;
67902;SDS011;54708;43.612;1.568;2023-12-29T03:43:09;30.50;;;19.70;;
67902;SDS011;54708;43.612;1.568;2023-12-29T03:45:34;26.13;;;18.63;;
67902;SDS011;54708;43.612;1.568;2023-12-29T03:47:59;27.45;;;19.77;;
67902;SDS011;54708;43.612;1.568;2023-12-29T03:50:25;29.45;;;19.65;;
67902;SDS011;54708;43.612;1.568;2023-12-29T03:52:50;28.63;;;19.15;;
67902;SDS011;54708;43.612;1.568;2023-12-29T03:55:15;26.98;;;19.60;;
67902;SDS011;54708;43.612;1.568;2023-12-29T03:57:44;32.95;;;20.52;;
67902;SDS011;54708;43.612;1.568;2023-12-29T04:00:13;30.38;;;19.48;;
67902;SDS011;54708;43.612;1.568;2023-12-29T04:02:39;28.30;;;17.92;;
67902;SDS011;54708;43.612;1.568;2023-12-29T04:05:05;30.33;;;20.05;;
67902;SDS011;54708;43.612;1.568;2023-12-29T04:07:31;29.83;;;19.73;;
67902;SDS011;54708;43.612;1.568;2023-12-29T04:09:57;26.35;;;18.73;;
67902;SDS011;54708;43.612;1.568;2023-12-29T04:12:22;32.40;;;20.15;;
67902;SDS011;54708;43.612;1.568;2023-12-29T04:14:47;30.90;;;19.95;;
67902;SDS011;54708;43.612;1.568;2023-12-29T04:17:13;27.55;;;17.80;;
67902;SDS011;54708;43.612;1.568;2023-12-29T04:19:42;28.77;;;18.50;;
67902;SDS011;54708;43.612;1.568;2023-12-29T04:22:07;26.65;;;17.88;;
67902;SDS011;54708;43.612;1.568;2023-12-29T04:24:33;30.60;;;19.33;;
67902;SDS011;54708;43.612;1.568;2023-12-29T04:26:59;32.72;;;18.85;;
67902;SDS011;54708;43.612;1.568;2023-12-29T04:29:24;29.92;;;18.13;;
67902;SDS011;54708;43.612;1.568;2023-12-29T04:31:50;28.35;;;17.02;;
67902;SDS011;54708;43.612;1.568;2023-12-29T04:34:15;23.00;;;17.00;;
67902;SDS011;54708;43.612;1.568;2023-12-29T04:36:40;24.98;;;17.85;;
67902;SDS011;54708;43.612;1.568;2023-12-29T04:39:06;25.85;;;17.55;;
67902;SDS011;54708;43.612;1.568;2023-12-29T04:41:34;26.00;;;17.45;;
67902;SDS011;54708;43.612;1.568;2023-12-29T04:43:59;28.33;;;19.33;;
67902;SDS011;54708;43.612;1.568;2023-12-29T04:46:25;25.48;;;17.05;;
67902;SDS011;54708;43.612;1.568;2023-12-29T04:48:50;24.00;;;16.25;;
67902;SDS011;54708;43.612;1.568;2023-12-29T04:51:16;26.17;;;17.65;;
67902;SDS011;54708;43.612;1.568;2023-12-29T04:53:41;26.27;;;17.50;;
67902;SDS011;54708;43.612;1.568;2023-12-29T04:56:06;29.13;;;18.17;;
67902;SDS011;54708;43.612;1.568;2023-12-29T04:58:32;32.92;;;20.38;;
67902;SDS011;54708;43.612;1.568;2023-12-29T05:00:57;27.17;;;18.83;;
67902;SDS011;54708;43.612;1.568;2023-12-29T05:03:22;25.48;;;17.92;;
67902;SDS011;54708;43.612;1.568;2023-12-29T05:05:48;25.50;;;17.33;;
67902;SDS011;54708;43.612;1.568;2023-12-29T05:08:13;31.23;;;17.20;;
67902;SDS011;54708;43.612;1.568;2023-12-29T05:10:38;28.48;;;17.23;;
67902;SDS011;54708;43.612;1.568;2023-12-29T05:13:04;28.17;;;17.42;;
67902;SDS011;54708;43.612;1.568;2023-12-29T05:15:29;23.30;;;16.45;;
67902;SDS011;54708;43.612;1.568;2023-12-29T05:17:55;24.92;;;17.20;;
67902;SDS011;54708;43.612;1.568;2023-12-29T05:20:20;28.75;;;18.08;;
67902;SDS011;54708;43.612;1.568;2023-12-29T05:22:45;30.35;;;18.58;;
67902;SDS011;54708;43.612;1.568;2023-12-29T05:25:11;30.92;;;17.48;;
67902;SDS011;54708;43.612;1.568;2023-12-29T05:27:36;23.35;;;17.48;;
67902;SDS011;54708;43.612;1.568;2023-12-29T05:30:02;25.23;;;17.52;;
67902;SDS011;54708;43.612;1.568;2023-12-29T05:32:28;22.52;;;16.08;;
67902;SDS011;54708;43.612;1.568;2023-12-29T05:34:53;26.13;;;16.10;;
67902;SDS011;54708;43.612;1.568;2023-12-29T05:37:18;28.20;;;18.35;;
67902;SDS011;54708;43.612;1.568;2023-12-29T05:39:44;25.45;;;16.15;;
67902;SDS011;54708;43.612;1.568;2023-12-29T05:42:09;28.08;;;17.88;;
67902;SDS011;54708;43.612;1.568;2023-12-29T05:44:37;26.52;;;17.55;;
67902;SDS011;54708;43.612;1.568;2023-12-29T05:47:04;26.92;;;18.73;;
67902;SDS011;54708;43.612;1.568;2023-12-29T05:49:29;29.60;;;18.17;;
67902;SDS011;54708;43.612;1.568;2023-12-29T05:51:56;28.60;;;18.27;;
67902;SDS011;54708;43.612;1.568;2023-12-29T05:54:22;27.35;;;18.88;;
67902;SDS011;54708;43.612;1.568;2023-12-29T05:56:48;23.88;;;17.67;;
67902;SDS011;54708;43.612;1.568;2023-12-29T05:59:14;27.67;;;18.02;;
67902;SDS011;54708;43.612;1.568;2023-12-29T06:01:40;32.78;;;19.27;;
67902;SDS011;54708;43.612;1.568;2023-12-29T06:04:05;30.10;;;18.83;;
67902;SDS011;54708;43.612;1.568;2023-12-29T06:06:31;34.42;;;18.92;;
67902;SDS011;54708;43.612;1.568;2023-12-29T06:08:56;29.75;;;20.50;;
67902;SDS011;54708;43.612;1.568;2023-12-29T06:11:21;30.23;;;20.48;;
67902;SDS011;54708;43.612;1.568;2023-12-29T06:13:47;25.00;;;19.42;;
67902;SDS011;54708;43.612;1.568;2023-12-29T06:16:19;33.35;;;19.20;;
67902;SDS011;54708;43.612;1.568;2023-12-29T06:18:45;31.42;;;18.27;;
67902;SDS011;54708;43.612;1.568;2023-12-29T06:21:10;29.02;;;18.13;;
67902;SDS011;54708;43.612;1.568;2023-12-29T06:23:36;26.58;;;17.38;;
67902;SDS011;54708;43.612;1.568;2023-12-29T06:26:01;30.42;;;17.73;;
67902;SDS011;54708;43.612;1.568;2023-12-29T06:28:27;27.98;;;17.60;;
67902;SDS011;54708;43.612;1.568;2023-12-29T06:30:53;25.60;;;16.60;;
67902;SDS011;54708;43.612;1.568;2023-12-29T06:33:18;27.98;;;17.02;;
67902;SDS011;54708;43.612;1.568;2023-12-29T06:35:46;27.40;;;17.50;;
67902;SDS011;54708;43.612;1.568;2023-12-29T06:38:12;24.95;;;17.17;;
67902;SDS011;54708;43.612;1.568;2023-12-29T06:40:38;26.23;;;18.30;;
67902;SDS011;54708;43.612;1.568;2023-12-29T06:43:03;28.13;;;18.95;;
67902;SDS011;54708;43.612;1.568;2023-12-29T06:45:29;24.17;;;16.88;;
67902;SDS011;54708;43.612;1.568;2023-12-29T06:47:54;22.58;;;16.60;;
67902;SDS011;54708;43.612;1.568;2023-12-29T06:50:20;25.35;;;17.17;;
67902;SDS011;54708;43.612;1.568;2023-12-29T06:52:45;27.48;;;16.92;;
67902;SDS011;54708;43.612;1.568;2023-12-29T06:55:11;26.58;;;18.77;;
67902;SDS011;54708;43.612;1.568;2023-12-29T06:57:36;25.58;;;19.00;;
67902;SDS011;54708;43.612;1.568;2023-12-29T07:00:02;29.70;;;18.77;;
67902;SDS011;54708;43.612;1.568;2023-12-29T07:02:28;23.88;;;16.85;;
67902;SDS011;54708;43.612;1.568;2023-12-29T07:04:54;24.27;;;18.38;;
67902;SDS011;54708;43.612;1.568;2023-12-29T07:07:19;23.83;;;17.23;;
67902;SDS011;54708;43.612;1.568;2023-12-29T07:09:44;22.75;;;16.63;;
67902;SDS011;54708;43.612;1.568;2023-12-29T07:12:10;24.42;;;16.10;;
67902;SDS011;54708;43.612;1.568;2023-12-29T07:14:35;30.52;;;17.17;;
67902;SDS011;54708;43.612;1.568;2023-12-29T07:17:01;25.38;;;17.85;;
67902;SDS011;54708;43.612;1.568;2023-12-29T07:19:27;28.20;;;18.23;;
67902;SDS011;54708;43.612;1.568;2023-12-29T07:21:59;28.70;;;18.75;;
67902;SDS011;54708;43.612;1.568;2023-12-29T07:24:24;27.13;;;17.17;;
67902;SDS011;54708;43.612;1.568;2023-12-29T07:26:50;23.30;;;16.42;;
67902;SDS011;54708;43.612;1.568;2023-12-29T07:29:15;22.02;;;15.23;;
67902;SDS011;54708;43.612;1.568;2023-12-29T07:31:40;25.40;;;16.13;;
67902;SDS011;54708;43.612;1.568;2023-12-29T07:34:06;27.42;;;16.48;;
67902;SDS011;54708;43.612;1.568;2023-12-29T07:36:31;23.30;;;16.33;;
67902;SDS011;54708;43.612;1.568;2023-12-29T07:38:57;23.52;;;17.23;;
67902;SDS011;54708;43.612;1.568;2023-12-29T07:41:22;24.70;;;18.67;;
67902;SDS011;54708;43.612;1.568;2023-12-29T07:43:47;24.63;;;17.77;;
67902;SDS011;54708;43.612;1.568;2023-12-29T07:46:22;24.15;;;17.55;;
67902;SDS011;54708;43.612;1.568;2023-12-29T07:48:49;22.33;;;16.35;;
67902;SDS011;54708;43.612;1.568;2023-12-29T07:51:14;29.55;;;19.25;;
67902;SDS011;54708;43.612;1.568;2023-12-29T07:53:41;28.70;;;17.50;;
67902;SDS011;54708;43.612;1.568;2023-12-29T07:56:06;28.48;;;18.60;;
67902;SDS011;54708;43.612;1.568;2023-12-29T07:58:32;26.45;;;19.70;;
67902;SDS011;54708;43.612;1.568;2023-12-29T08:00:57;28.77;;;19.35;;
67902;SDS011;54708;43.612;1.568;2023-12-29T08:03:22;30.08;;;19.42;;
67902;SDS011;54708;43.612;1.568;2023-12-29T08:05:48;22.98;;;16.50;;
67902;SDS011;54708;43.612;1.568;2023-12-29T08:08:13;25.73;;;16.17;;
67902;SDS011;54708;43.612;1.568;2023-12-29T08:10:39;25.50;;;16.73;;
67902;SDS011;54708;43.612;1.568;2023-12-29T08:13:05;24.27;;;17.10;;
67902;SDS011;54708;43.612;1.568;2023-12-29T08:15:32;26.80;;;19.08;;
67902;SDS011;54708;43.612;1.568;2023-12-29T08:17:58;26.33;;;17.83;;
67902;SDS011;54708;43.612;1.568;2023-12-29T08:20:23;28.00;;;17.85;;
67902;SDS011;54708;43.612;1.568;2023-12-29T08:22:49;26.13;;;19.58;;
67902;SDS011;54708;43.612;1.568;2023-12-29T08:25:14;38.42;;;23.05;;
67902;SDS011;54708;43.612;1.568;2023-12-29T08:27:40;35.13;;;22.27;;
67902;SDS011;54708;43.612;1.568;2023-12-29T08:30:06;32.50;;;22.52;;
67902;SDS011;54708;43.612;1.568;2023-12-29T08:32:32;25.88;;;19.88;;
67902;SDS011;54708;43.612;1.568;2023-12-29T08:34:58;32.35;;;19.98;;
67902;SDS011;54708;43.612;1.568;2023-12-29T08:37:24;35.10;;;21.05;;
67902;SDS011;54708;43.612;1.568;2023-12-29T08:39:49;29.80;;;20.67;;
67902;SDS011;54708;43.612;1.568;2023-12-29T08:42:14;36.75;;;23.15;;
67902;SDS011;54708;43.612;1.568;2023-12-29T08:44:40;28.30;;;19.20;;
67902;SDS011;54708;43.612;1.568;2023-12-29T08:47:06;51.88;;;32.55;;
67902;SDS011;54708;43.612;1.568;2023-12-29T08:49:33;49.15;;;34.20;;
67902;SDS011;54708;43.612;1.568;2023-12-29T08:52:00;44.67;;;29.08;;
67902;SDS011;54708;43.612;1.568;2023-12-29T08:54:25;35.85;;;24.15;;
67902;SDS011;54708;43.612;1.568;2023-12-29T08:56:50;35.63;;;25.08;;
67902;SDS011;54708;43.612;1.568;2023-12-29T08:59:16;31.48;;;21.27;;
67902;SDS011;54708;43.612;1.568;2023-12-29T09:01:41;38.30;;;28.80;;
67902;SDS011;54708;43.612;1.568;2023-12-29T09:04:06;40.22;;;27.50;;
67902;SDS011;54708;43.612;1.568;2023-12-29T09:06:32;37.85;;;27.95;;
67902;SDS011;54708;43.612;1.568;2023-12-29T09:08:57;38.97;;;24.20;;
67902;SDS011;54708;43.612;1.568;2023-12-29T09:11:23;52.75;;;32.58;;
67902;SDS011;54708;43.612;1.568;2023-12-29T09:13:48;75.13;;;44.92;;
67902;SDS011;54708;43.612;1.568;2023-12-29T09:16:13;52.97;;;36.15;;
67902;SDS011;54708;43.612;1.568;2023-12-29T09:18:39;47.17;;;31.42;;
67902;SDS011;54708;43.612;1.568;2023-12-29T09:21:04;46.28;;;31.75;;
67902;SDS011;54708;43.612;1.568;2023-12-29T09:23:29;48.17;;;30.75;;
67902;SDS011;54708;43.612;1.568;2023-12-29T09:25:55;44.17;;;28.98;;
67902;SDS011;54708;43.612;1.568;2023-12-29T09:28:20;40.10;;;26.92;;
67902;SDS011;54708;43.612;1.568;2023-12-29T09:30:46;35.20;;;24.50;;
67902;SDS011;54708;43.612;1.568;2023-12-29T09:33:11;34.47;;;22.45;;
67902;SDS011;54708;43.612;1.568;2023-12-29T09:35:38;27.20;;;19.25;;
67902;SDS011;54708;43.612;1.568;2023-12-29T09:38:04;33.35;;;22.10;;
67902;SDS011;54708;43.612;1.568;2023-12-29T09:40:29;27.55;;;19.77;;
67902;SDS011;54708;43.612;1.568;2023-12-29T09:42:55;28.45;;;19.75;;
67902;SDS011;54708;43.612;1.568;2023-12-29T09:45:23;31.15;;;20.63;;
67902;SDS011;54708;43.612;1.568;2023-12-29T09:47:50;33.35;;;21.20;;
67902;SDS011;54708;43.612;1.568;2023-12-29T09:50:17;30.30;;;21.55;;
67902;SDS011;54708;43.612;1.568;2023-12-29T09:52:43;39.05;;;26.55;;
67902;SDS011;54708;43.612;1.568;2023-12-29T09:55:09;36.13;;;22.98;;
67902;SDS011;54708;43.612;1.568;2023-12-29T09:57:38;34.10;;;22.90;;
67902;SDS011;54708;43.612;1.568;2023-12-29T10:00:05;26.27;;;19.48;;
67902;SDS011;54708;43.612;1.568;2023-12-29T10:02:32;27.63;;;20.45;;
67902;SDS011;54708;43.612;1.568;2023-12-29T10:04:57;40.28;;;23.73;;
67902;SDS011;54708;43.612;1.568;2023-12-29T10:07:24;32.78;;;19.75;;
67902;SDS011;54708;43.612;1.568;2023-12-29T10:09:57;27.05;;;18.25;;
67902;SDS011;54708;43.612;1.568;2023-12-29T10:12:23;24.88;;;18.25;;
67902;SDS011;54708;43.612;1.568;2023-12-29T10:14:57;27.05;;;18.92;;
67902;SDS011;54708;43.612;1.568;2023-12-29T10:17:32;28.08;;;17.73;;
67902;SDS011;54708;43.612;1.568;2023-12-29T10:25:38;25.23;;;16.95;;
67902;SDS011;54708;43.612;1.568;2023-12-29T10:28:03;22.20;;;16.13;;
67902;SDS011;54708;43.612;1.568;2023-12-29T10:30:30;21.52;;;14.73;;
67902;SDS011;54708;43.612;1.568;2023-12-29T10:32:56;24.50;;;13.95;;
67902;SDS011;54708;43.612;1.568;2023-12-29T10:35:23;56.65;;;36.00;;
67902;SDS011;54708;43.612;1.568;2023-12-29T10:37:48;40.40;;;26.83;;
67902;SDS011;54708;43.612;1.568;2023-12-29T10:40:18;34.30;;;22.92;;
67902;SDS011;54708;43.612;1.568;2023-12-29T10:42:53;19.95;;;14.80;;
67902;SDS011;54708;43.612;1.568;2023-12-29T10:45:19;20.88;;;14.77;;
67902;SDS011;54708;43.612;1.568;2023-12-29T10:47:46;20.05;;;15.32;;
67902;SDS011;54708;43.612;1.568;2023-12-29T10:50:12;17.73;;;13.80;;
67902;SDS011;54708;43.612;1.568;2023-12-29T10:52:37;19.88;;;14.35;;
67902;SDS011;54708;43.612;1.568;2023-12-29T10:55:06;20.38;;;15.93;;
67902;SDS011;54708;43.612;1.568;2023-12-29T10:57:34;20.23;;;14.25;;
67902;SDS011;54708;43.612;1.568;2023-12-29T11:00:00;22.15;;;15.73;;
67902;SDS011;54708;43.612;1.568;2023-12-29T11:02:26;22.35;;;15.70;;
67902;SDS011;54708;43.612;1.568;2023-12-29T11:05:00;21.88;;;14.95;;
67902;SDS011;54708;43.612;1.568;2023-12-29T11:07:34;22.33;;;16.00;;
67902;SDS011;54708;43.612;1.568;2023-12-29T11:10:04;19.85;;;14.52;;
67902;SDS011;54708;43.612;1.568;2023-12-29T11:12:34;21.77;;;16.17;;
67902;SDS011;54708;43.612;1.568;2023-12-29T11:15:03;20.15;;;14.23;;
67902;SDS011;54708;43.612;1.568;2023-12-29T11:17:31;21.67;;;13.80;;
67902;SDS011;54708;43.612;1.568;2023-12-29T11:19:59;20.95;;;13.48;;
67902;SDS011;54708;43.612;1.568;2023-12-29T11:22:26;19.88;;;15.23;;
67902;SDS011;54708;43.612;1.568;2023-12-29T11:24:53;19.55;;;13.35;;
67902;SDS011;54708;43.612;1.568;2023-12-29T11:27:18;19.75;;;13.80;;
67902;SDS011;54708;43.612;1.568;2023-12-29T11:29:44;16.63;;;12.45;;
67902;SDS011;54708;43.612;1.568;2023-12-29T11:32:16;19.17;;;12.43;;
67902;SDS011;54708;43.612;1.568;2023-12-29T11:34:46;16.38;;;11.75;;
67902;SDS011;54708;43.612;1.568;2023-12-29T11:42:53;11.43;;;9.70;;
67902;SDS011;54708;43.612;1.568;2023-12-29T11:45:23;13.55;;;10.25;;
67902;SDS011;54708;43.612;1.568;2023-12-29T11:47:50;10.30;;;8.93;;
67902;SDS011;54708;43.612;1.568;2023-12-29T11:50:26;12.88;;;9.90;;
67902;SDS011;54708;43.612;1.568;2023-12-29T11:52:59;14.85;;;9.02;;
67902;SDS011;54708;43.612;1.568;2023-12-29T11:55:34;11.52;;;8.18;;
67902;SDS011;54708;43.612;1.568;2023-12-29T11:58:03;13.73;;;9.30;;
67902;SDS011;54708;43.612;1.568;2023-12-29T12:05:47;12.82;;;8.88;;
67902;SDS011;54708;43.612;1.568;2023-12-29T12:08:34;13.00;;;8.52;;
67902;SDS011;54708;43.612;1.568;2023-12-29T12:13:53;11.02;;;7.97;;
67902;SDS011;54708;43.612;1.568;2023-12-29T12:19:10;14.13;;;7.20;;
67902;SDS011;54708;43.612;1.568;2023-12-29T12:21:35;11.15;;;7.45;;
67902;SDS011;54708;43.612;1.568;2023-12-29T12:24:03;9.98;;;7.25;;
67902;SDS011;54708;43.612;1.568;2023-12-29T12:26:30;13.90;;;7.50;;
67902;SDS011;54708;43.612;1.568;2023-12-29T12:28:55;11.07;;;7.18;;
67902;SDS011;54708;43.612;1.568;2023-12-29T12:31:21;9.73;;;6.03;;
67902;SDS011;54708;43.612;1.568;2023-12-29T12:33:55;9.35;;;6.95;;
67902;SDS011;54708;43.612;1.568;2023-12-29T12:36:21;6.85;;;6.07;;
67902;SDS011;54708;43.612;1.568;2023-12-29T12:38:51;9.32;;;6.30;;
67902;SDS011;54708;43.612;1.568;2023-12-29T12:43:49;7.40;;;6.38;;
67902;SDS011;54708;43.612;1.568;2023-12-29T12:46:21;8.07;;;6.32;;
67902;SDS011;54708;43.612;1.568;2023-12-29T12:48:49;9.40;;;6.03;;
67902;SDS011;54708;43.612;1.568;2023-12-29T12:51:15;7.65;;;6.15;;
67902;SDS011;54708;43.612;1.568;2023-12-29T12:53:41;7.40;;;5.93;;
67902;SDS011;54708;43.612;1.568;2023-12-29T12:56:09;7.55;;;6.43;;
67902;SDS011;54708;43.612;1.568;2023-12-29T12:58:34;9.77;;;6.00;;
67902;SDS011;54708;43.612;1.568;2023-12-29T13:01:00;10.45;;;6.95;;
67902;SDS011;54708;43.612;1.568;2023-12-29T13:03:25;7.82;;;6.30;;
67902;SDS011;54708;43.612;1.568;2023-12-29T13:05:51;6.72;;;6.00;;
67902;SDS011;54708;43.612;1.568;2023-12-29T13:08:16;10.48;;;6.65;;
67902;SDS011;54708;43.612;1.568;2023-12-29T13:10:42;10.10;;;5.72;;
67902;SDS011;54708;43.612;1.568;2023-12-29T13:13:08;8.02;;;6.32;;
67902;SDS011;54708;43.612;1.568;2023-12-29T13:15:34;7.18;;;6.07;;
67902;SDS011;54708;43.612;1.568;2023-12-29T13:17:59;7.47;;;6.00;;
67902;SDS011;54708;43.612;1.568;2023-12-29T13:20:25;6.75;;;5.25;;
67902;SDS011;54708;43.612;1.568;2023-12-29T13:22:50;9.18;;;5.07;;
67902;SDS011;54708;43.612;1.568;2023-12-29T13:25:25;5.38;;;4.90;;
67902;SDS011;54708;43.612;1.568;2023-12-29T13:27:52;6.40;;;5.70;;
67902;SDS011;54708;43.612;1.568;2023-12-29T13:30:18;5.53;;;5.00;;
67902;SDS011;54708;43.612;1.568;2023-12-29T13:32:44;6.82;;;4.88;;
67902;SDS011;54708;43.612;1.568;2023-12-29T13:35:11;6.53;;;5.25;;
67902;SDS011;54708;43.612;1.568;2023-12-29T13:42:55;8.27;;;5.18;;
67902;SDS011;54708;43.612;1.568;2023-12-29T13:45:23;8.35;;;5.20;;
67902;SDS011;54708;43.612;1.568;2023-12-29T13:47:49;6.95;;;5.05;;
67902;SDS011;54708;43.612;1.568;2023-12-29T13:50:14;9.30;;;5.43;;
67902;SDS011;54708;43.612;1.568;2023-12-29T13:52:40;8.15;;;5.82;;
67902;SDS011;54708;43.612;1.568;2023-12-29T13:55:06;10.82;;;6.25;;
67902;SDS011;54708;43.612;1.568;2023-12-29T13:57:34;10.40;;;6.68;;
67902;SDS011;54708;43.612;1.568;2023-12-29T14:00:16;7.30;;;5.80;;
67902;SDS011;54708;43.612;1.568;2023-12-29T14:02:48;8.65;;;5.90;;
67902;SDS011;54708;43.612;1.568;2023-12-29T14:10:30;7.10;;;6.10;;
67902;SDS011;54708;43.612;1.568;2023-12-29T14:13:02;10.80;;;6.38;;
67902;SDS011;54708;43.612;1.568;2023-12-29T14:15:38;10.77;;;6.07;;
67902;SDS011;54708;43.612;1.568;2023-12-29T14:18:06;8.25;;;6.22;;
67902;SDS011;54708;43.612;1.568;2023-12-29T14:20:41;8.88;;;6.30;;
67902;SDS011;54708;43.612;1.568;2023-12-29T14:23:06;7.75;;;5.72;;
67902;SDS011;54708;43.612;1.568;2023-12-29T14:25:35;13.18;;;5.82;;
67902;SDS011;54708;43.612;1.568;2023-12-29T14:28:23;7.70;;;5.50;;
67902;SDS011;54708;43.612;1.568;2023-12-29T14:30:47;8.70;;;6.00;;
67902;SDS011;54708;43.612;1.568;2023-12-29T14:33:13;7.30;;;6.10;;
67902;SDS011;54708;43.612;1.568;2023-12-29T14:35:38;7.15;;;5.45;;
67902;SDS011;54708;43.612;1.568;2023-12-29T14:38:04;6.03;;;5.43;;
67902;SDS011;54708;43.612;1.568;2023-12-29T14:40:29;5.68;;;5.10;;
67902;SDS011;54708;43.612;1.568;2023-12-29T14:42:55;5.63;;;4.45;;
67902;SDS011;54708;43.612;1.568;2023-12-29T14:45:20;5.15;;;4.30;;
67902;SDS011;54708;43.612;1.568;2023-12-29T14:47:45;4.32;;;3.90;;
67902;SDS011;54708;43.612;1.568;2023-12-29T14:50:11;6.70;;;4.78;;
67902;SDS011;54708;43.612;1.568;2023-12-29T14:52:37;5.22;;;4.72;;
67902;SDS011;54708;43.612;1.568;2023-12-29T14:55:03;5.30;;;4.72;;
67902;SDS011;54708;43.612;1.568;2023-12-29T14:57:29;6.03;;;4.60;;
67902;SDS011;54708;43.612;1.568;2023-12-29T14:59:54;7.80;;;4.53;;
67902;SDS011;54708;43.612;1.568;2023-12-29T15:02:20;4.85;;;3.92;;